sensor_id;sensor_type;location;lat;lon;timestamp;pressure;altitude;pressure_sealevel;temperature;humidity
49063;BME280;34876;51.464;-0.150;2024-03-23T00:54:31;101395.94;;;18.60;38.52
49063;BME280;34876;51.464;-0.150;2024-03-23T00:57:00;101392.25;;;18.62;38.52
49063;BME280;34876;51.464;-0.150;2024-03-23T00:59:29;101387.80;;;18.60;38.45
49063;BME280;34876;51.464;-0.150;2024-03-23T01:03:41;101383.17;;;18.61;38.40
49063;BME280;34876;51.464;-0.150;2024-03-23T01:06:11;101380.94;;;18.61;38.52
49063;BME280;34876;51.464;-0.150;2024-03-23T01:08:45;101373.98;;;18.61;38.57
49063;BME280;34876;51.464;-0.150;2024-03-23T01:11:15;101369.90;;;18.60;38.41
49063;BME280;34876;51.464;-0.150;2024-03-23T01:13:44;101372.99;;;18.61;38.45
49063;BME280;34876;51.464;-0.150;2024-03-23T01:16:18;101372.12;;;18.50;38.70
49063;BME280;34876;51.464;-0.150;2024-03-23T01:18:49;101370.69;;;18.58;38.46
49063;BME280;34876;51.464;-0.150;2024-03-23T01:21:22;101376.86;;;18.58;38.51
49063;BME280;34876;51.464;-0.150;2024-03-23T01:23:53;101380.22;;;18.59;38.55
49063;BME280;34876;51.464;-0.150;2024-03-23T01:26:22;101378.36;;;18.58;38.61
49063;BME280;34876;51.464;-0.150;2024-03-23T01:28:55;101378.31;;;18.58;38.44
49063;BME280;34876;51.464;-0.150;2024-03-23T01:31:25;101381.54;;;18.57;38.48
49063;BME280;34876;51.464;-0.150;2024-03-23T01:33:56;101381.30;;;18.58;38.61
49063;BME280;34876;51.464;-0.150;2024-03-23T01:36:26;101380.09;;;18.54;38.64
49063;BME280;34876;51.464;-0.150;2024-03-23T01:38:56;101381.55;;;18.58;38.57
49063;BME280;34876;51.464;-0.150;2024-03-23T01:41:30;101378.08;;;18.56;38.52
49063;BME280;34876;51.464;-0.150;2024-03-23T01:44:05;101374.15;;;18.56;38.63
49063;BME280;34876;51.464;-0.150;2024-03-23T01:46:36;101378.80;;;18.27;37.44
49063;BME280;34876;51.464;-0.150;2024-03-23T01:49:07;101374.83;;;18.52;38.78
49063;BME280;34876;51.464;-0.150;2024-03-23T01:51:37;101377.24;;;18.53;38.72
49063;BME280;34876;51.464;-0.150;2024-03-23T01:54:08;101371.84;;;18.54;38.66
49063;BME280;34876;51.464;-0.150;2024-03-23T01:56:38;101370.65;;;18.53;38.62
49063;BME280;34876;51.464;-0.150;2024-03-23T01:59:08;101374.85;;;18.53;38.68
49063;BME280;34876;51.464;-0.150;2024-03-23T02:01:38;101377.48;;;18.54;38.56
49063;BME280;34876;51.464;-0.150;2024-03-23T02:04:07;101377.16;;;18.53;38.74
49063;BME280;34876;51.464;-0.150;2024-03-23T02:06:37;101377.98;;;18.41;38.44
49063;BME280;34876;51.464;-0.150;2024-03-23T02:09:07;101375.25;;;18.48;38.73
49063;BME280;34876;51.464;-0.150;2024-03-23T02:11:37;101371.51;;;18.53;38.61
49063;BME280;34876;51.464;-0.150;2024-03-23T02:14:07;101366.15;;;18.51;38.69
49063;BME280;34876;51.464;-0.150;2024-03-23T02:16:37;101363.55;;;18.50;38.70
49063;BME280;34876;51.464;-0.150;2024-03-23T02:19:05;101361.02;;;18.51;38.64
49063;BME280;34876;51.464;-0.150;2024-03-23T02:21:36;101362.44;;;18.50;38.45
49063;BME280;34876;51.464;-0.150;2024-03-23T02:24:04;101361.96;;;18.50;38.61
49063;BME280;34876;51.464;-0.150;2024-03-23T02:26:35;101361.56;;;18.47;38.57
49063;BME280;34876;51.464;-0.150;2024-03-23T02:29:09;101362.83;;;18.49;38.58
49063;BME280;34876;51.464;-0.150;2024-03-23T02:31:40;101361.56;;;18.49;38.49
49063;BME280;34876;51.464;-0.150;2024-03-23T02:34:10;101364.05;;;18.47;38.66
49063;BME280;34876;51.464;-0.150;2024-03-23T02:36:39;101363.40;;;18.48;38.70
49063;BME280;34876;51.464;-0.150;2024-03-23T02:39:10;101359.99;;;18.46;38.55
49063;BME280;34876;51.464;-0.150;2024-03-23T02:41:38;101362.65;;;18.47;38.56
49063;BME280;34876;51.464;-0.150;2024-03-23T02:44:08;101359.71;;;18.47;38.46
49063;BME280;34876;51.464;-0.150;2024-03-23T02:46:37;101358.62;;;18.45;38.59
49063;BME280;34876;51.464;-0.150;2024-03-23T02:49:08;101361.40;;;18.45;38.60
49063;BME280;34876;51.464;-0.150;2024-03-23T02:51:38;101360.70;;;18.45;38.56
49063;BME280;34876;51.464;-0.150;2024-03-23T02:54:06;101362.28;;;18.45;38.57
49063;BME280;34876;51.464;-0.150;2024-03-23T02:56:36;101358.07;;;18.31;34.75
49063;BME280;34876;51.464;-0.150;2024-03-23T02:59:06;101359.59;;;18.40;38.73
49063;BME280;34876;51.464;-0.150;2024-03-23T03:01:36;101362.87;;;18.42;38.49
49063;BME280;34876;51.464;-0.150;2024-03-23T03:04:06;101362.50;;;18.44;38.52
49063;BME280;34876;51.464;-0.150;2024-03-23T03:06:35;101359.66;;;18.44;38.56
49063;BME280;34876;51.464;-0.150;2024-03-23T03:09:10;101356.90;;;18.42;38.54
49063;BME280;34876;51.464;-0.150;2024-03-23T03:11:39;101359.06;;;18.44;38.56
49063;BME280;34876;51.464;-0.150;2024-03-23T03:14:08;101357.19;;;18.37;38.65
49063;BME280;34876;51.464;-0.150;2024-03-23T03:16:38;101361.48;;;18.41;38.45
49063;BME280;34876;51.464;-0.150;2024-03-23T03:19:08;101357.85;;;18.40;38.53
49063;BME280;34876;51.464;-0.150;2024-03-23T03:21:38;101356.38;;;18.39;38.51
49063;BME280;34876;51.464;-0.150;2024-03-23T03:24:08;101357.87;;;18.39;38.49
49063;BME280;34876;51.464;-0.150;2024-03-23T03:26:37;101358.68;;;18.37;38.52
49063;BME280;34876;51.464;-0.150;2024-03-23T03:29:05;101354.54;;;18.38;38.36
49063;BME280;34876;51.464;-0.150;2024-03-23T03:31:35;101349.11;;;18.37;38.50
49063;BME280;34876;51.464;-0.150;2024-03-23T03:34:04;101348.61;;;18.38;38.49
49063;BME280;34876;51.464;-0.150;2024-03-23T03:36:36;101348.15;;;18.38;38.56
49063;BME280;34876;51.464;-0.150;2024-03-23T03:39:05;101352.05;;;18.28;38.73
49063;BME280;34876;51.464;-0.150;2024-03-23T03:41:36;101352.31;;;18.38;38.45
49063;BME280;34876;51.464;-0.150;2024-03-23T03:44:05;101350.55;;;18.37;38.50
49063;BME280;34876;51.464;-0.150;2024-03-23T03:46:39;101346.53;;;18.36;38.58
49063;BME280;34876;51.464;-0.150;2024-03-23T03:49:09;101342.68;;;18.35;38.52
49063;BME280;34876;51.464;-0.150;2024-03-23T03:51:39;101340.04;;;18.34;38.46
49063;BME280;34876;51.464;-0.150;2024-03-23T03:54:08;101341.90;;;18.35;38.47
49063;BME280;34876;51.464;-0.150;2024-03-23T03:56:38;101343.46;;;18.36;38.44
49063;BME280;34876;51.464;-0.150;2024-03-23T03:59:07;101342.64;;;18.35;38.39
49063;BME280;34876;51.464;-0.150;2024-03-23T04:01:37;101339.24;;;17.96;39.01
49063;BME280;34876;51.464;-0.150;2024-03-23T04:04:05;101339.29;;;18.15;38.80
49063;BME280;34876;51.464;-0.150;2024-03-23T04:06:34;101335.85;;;18.29;38.48
49063;BME280;34876;51.464;-0.150;2024-03-23T04:09:04;101336.77;;;18.31;38.35
49063;BME280;34876;51.464;-0.150;2024-03-23T04:11:38;101337.37;;;18.33;38.54
49063;BME280;34876;51.464;-0.150;2024-03-23T04:14:07;101337.47;;;18.29;38.57
49063;BME280;34876;51.464;-0.150;2024-03-23T04:16:37;101336.67;;;18.30;38.43
49063;BME280;34876;51.464;-0.150;2024-03-23T04:19:06;101337.46;;;18.26;38.55
49063;BME280;34876;51.464;-0.150;2024-03-23T04:21:36;101338.86;;;18.31;38.26
49063;BME280;34876;51.464;-0.150;2024-03-23T04:24:07;101339.16;;;18.23;38.49
49063;BME280;34876;51.464;-0.150;2024-03-23T04:26:41;101334.74;;;18.28;38.45
49063;BME280;34876;51.464;-0.150;2024-03-23T04:29:10;101335.47;;;18.27;38.41
49063;BME280;34876;51.464;-0.150;2024-03-23T04:31:40;101337.33;;;18.27;38.30
49063;BME280;34876;51.464;-0.150;2024-03-23T04:34:09;101336.70;;;18.27;38.34
49063;BME280;34876;51.464;-0.150;2024-03-23T04:36:40;101340.57;;;18.19;38.43
49063;BME280;34876;51.464;-0.150;2024-03-23T04:39:09;101337.72;;;18.24;38.34
49063;BME280;34876;51.464;-0.150;2024-03-23T04:41:38;101336.91;;;18.23;38.35
49063;BME280;34876;51.464;-0.150;2024-03-23T04:44:07;101334.01;;;18.19;38.51
49063;BME280;34876;51.464;-0.150;2024-03-23T04:46:37;101335.08;;;18.22;38.45
49063;BME280;34876;51.464;-0.150;2024-03-23T04:49:06;101328.77;;;18.21;38.47
49063;BME280;34876;51.464;-0.150;2024-03-23T04:51:36;101326.33;;;18.22;38.28
49063;BME280;34876;51.464;-0.150;2024-03-23T04:54:07;101324.13;;;18.21;38.27
49063;BME280;34876;51.464;-0.150;2024-03-23T04:56:37;101326.02;;;18.21;38.22
49063;BME280;34876;51.464;-0.150;2024-03-23T04:59:06;101326.18;;;18.19;38.28
49063;BME280;34876;51.464;-0.150;2024-03-23T05:01:35;101325.28;;;18.21;38.39
49063;BME280;34876;51.464;-0.150;2024-03-23T05:04:05;101323.11;;;18.18;38.25
49063;BME280;34876;51.464;-0.150;2024-03-23T05:06:34;101325.72;;;18.03;38.38
49063;BME280;34876;51.464;-0.150;2024-03-23T05:09:03;101322.81;;;18.17;38.34
49063;BME280;34876;51.464;-0.150;2024-03-23T05:11:32;101317.21;;;18.17;38.38
49063;BME280;34876;51.464;-0.150;2024-03-23T05:14:06;101314.13;;;18.17;38.30
49063;BME280;34876;51.464;-0.150;2024-03-23T05:16:36;101318.07;;;18.08;38.31
49063;BME280;34876;51.464;-0.150;2024-03-23T05:19:06;101317.32;;;18.16;38.34
49063;BME280;34876;51.464;-0.150;2024-03-23T05:21:36;101319.51;;;18.16;38.26
49063;BME280;34876;51.464;-0.150;2024-03-23T05:24:05;101322.67;;;18.03;37.66
49063;BME280;34876;51.464;-0.150;2024-03-23T05:26:35;101314.19;;;18.14;38.22
49063;BME280;34876;51.464;-0.150;2024-03-23T05:29:04;101314.16;;;18.18;38.09
49063;BME280;34876;51.464;-0.150;2024-03-23T05:31:39;101312.02;;;18.15;38.20
49063;BME280;34876;51.464;-0.150;2024-03-23T05:34:09;101318.03;;;18.15;38.32
49063;BME280;34876;51.464;-0.150;2024-03-23T05:36:39;101313.57;;;17.81;38.98
49063;BME280;34876;51.464;-0.150;2024-03-23T05:39:07;101314.56;;;18.11;38.51
49063;BME280;34876;51.464;-0.150;2024-03-23T05:41:41;101313.61;;;18.14;38.27
49063;BME280;34876;51.464;-0.150;2024-03-23T05:44:11;101312.42;;;18.14;38.40
49063;BME280;34876;51.464;-0.150;2024-03-23T05:46:39;101310.17;;;18.15;38.43
49063;BME280;34876;51.464;-0.150;2024-03-23T05:49:08;101307.07;;;18.15;38.16
49063;BME280;34876;51.464;-0.150;2024-03-23T05:51:37;101308.82;;;18.14;38.26
49063;BME280;34876;51.464;-0.150;2024-03-23T05:54:06;101306.53;;;18.13;38.23
49063;BME280;34876;51.464;-0.150;2024-03-23T05:56:34;101309.57;;;18.14;38.30
49063;BME280;34876;51.464;-0.150;2024-03-23T05:59:04;101300.22;;;18.13;38.21
49063;BME280;34876;51.464;-0.150;2024-03-23T06:01:33;101304.75;;;18.09;38.32
49063;BME280;34876;51.464;-0.150;2024-03-23T06:04:03;101304.56;;;18.18;38.10
49063;BME280;34876;51.464;-0.150;2024-03-23T06:06:32;101300.44;;;18.10;38.25
49063;BME280;34876;51.464;-0.150;2024-03-23T06:09:01;101300.89;;;18.15;38.14
49063;BME280;34876;51.464;-0.150;2024-03-23T06:11:30;101299.16;;;18.15;37.95
49063;BME280;34876;51.464;-0.150;2024-03-23T06:13:59;101300.51;;;18.16;38.10
49063;BME280;34876;51.464;-0.150;2024-03-23T06:16:31;101300.96;;;18.15;38.15
49063;BME280;34876;51.464;-0.150;2024-03-23T06:19:00;101297.96;;;18.16;38.05
49063;BME280;34876;51.464;-0.150;2024-03-23T06:21:34;101296.29;;;18.35;37.60
49063;BME280;34876;51.464;-0.150;2024-03-23T06:24:05;101298.30;;;18.37;37.39
49063;BME280;34876;51.464;-0.150;2024-03-23T06:26:37;101299.23;;;18.32;37.56
49063;BME280;34876;51.464;-0.150;2024-03-23T06:29:07;101298.99;;;18.21;37.82
49063;BME280;34876;51.464;-0.150;2024-03-23T06:31:36;101297.05;;;18.21;37.67
49063;BME280;34876;51.464;-0.150;2024-03-23T06:34:05;101294.88;;;18.22;37.91
49063;BME280;34876;51.464;-0.150;2024-03-23T06:36:34;101295.35;;;18.18;36.53
49063;BME280;34876;51.464;-0.150;2024-03-23T06:39:03;101297.90;;;18.22;37.78
49063;BME280;34876;51.464;-0.150;2024-03-23T06:41:32;101294.73;;;18.24;37.68
49063;BME280;34876;51.464;-0.150;2024-03-23T06:44:01;101292.21;;;18.23;37.72
49063;BME280;34876;51.464;-0.150;2024-03-23T06:46:30;101287.70;;;18.23;37.65
49063;BME280;34876;51.464;-0.150;2024-03-23T06:48:59;101284.11;;;18.25;37.78
49063;BME280;34876;51.464;-0.150;2024-03-23T06:51:28;101283.13;;;18.25;37.61
49063;BME280;34876;51.464;-0.150;2024-03-23T06:53:57;101286.25;;;18.27;37.63
49063;BME280;34876;51.464;-0.150;2024-03-23T06:56:25;101285.17;;;18.27;37.60
49063;BME280;34876;51.464;-0.150;2024-03-23T06:58:54;101284.24;;;18.29;37.58
49063;BME280;34876;51.464;-0.150;2024-03-23T07:01:23;101286.53;;;18.29;37.46
49063;BME280;34876;51.464;-0.150;2024-03-23T07:03:53;101287.91;;;18.31;37.51
49063;BME280;34876;51.464;-0.150;2024-03-23T07:06:22;101287.25;;;18.33;37.45
49063;BME280;34876;51.464;-0.150;2024-03-23T07:08:52;101280.15;;;18.55;37.08
49063;BME280;34876;51.464;-0.150;2024-03-23T07:11:21;101279.63;;;18.70;36.92
49063;BME280;34876;51.464;-0.150;2024-03-23T07:13:51;101277.38;;;18.94;36.74
49063;BME280;34876;51.464;-0.150;2024-03-23T07:16:20;101278.89;;;19.05;36.32
49063;BME280;34876;51.464;-0.150;2024-03-23T07:18:50;101274.25;;;18.82;36.88
49063;BME280;34876;51.464;-0.150;2024-03-23T07:21:19;101265.02;;;18.91;36.15
49063;BME280;34876;51.464;-0.150;2024-03-23T07:23:53;101268.62;;;18.87;37.17
49063;BME280;34876;51.464;-0.150;2024-03-23T07:26:23;101264.21;;;18.93;36.86
49063;BME280;34876;51.464;-0.150;2024-03-23T07:28:53;101263.61;;;19.00;36.91
49063;BME280;34876;51.464;-0.150;2024-03-23T07:31:22;101257.77;;;19.13;36.61
49063;BME280;34876;51.464;-0.150;2024-03-23T07:33:52;101261.70;;;19.33;35.99
49063;BME280;34876;51.464;-0.150;2024-03-23T07:36:22;101258.26;;;19.41;35.80
49063;BME280;34876;51.464;-0.150;2024-03-23T07:38:50;101245.18;;;19.12;35.52
49063;BME280;34876;51.464;-0.150;2024-03-23T07:41:20;101244.06;;;19.29;36.97
49063;BME280;34876;51.464;-0.150;2024-03-23T07:43:56;101241.35;;;19.25;36.52
49063;BME280;34876;51.464;-0.150;2024-03-23T07:46:24;101232.21;;;19.28;37.04
49063;BME280;34876;51.464;-0.150;2024-03-23T07:48:53;101239.22;;;19.29;37.22
49063;BME280;34876;51.464;-0.150;2024-03-23T07:51:22;101233.24;;;19.68;36.36
49063;BME280;34876;51.464;-0.150;2024-03-23T07:53:51;101224.10;;;19.70;36.78
49063;BME280;34876;51.464;-0.150;2024-03-23T07:56:21;101217.02;;;19.79;37.37
49063;BME280;34876;51.464;-0.150;2024-03-23T07:58:50;101230.77;;;19.80;37.91
49063;BME280;34876;51.464;-0.150;2024-03-23T08:01:21;101227.47;;;19.99;33.86
49063;BME280;34876;51.464;-0.150;2024-03-23T08:03:51;101231.38;;;19.97;36.91
49063;BME280;34876;51.464;-0.150;2024-03-23T08:06:21;101227.69;;;19.82;36.89
49063;BME280;34876;51.464;-0.150;2024-03-23T08:08:52;101226.69;;;20.06;30.93
49063;BME280;34876;51.464;-0.150;2024-03-23T08:11:22;101232.43;;;19.27;36.99
49063;BME280;34876;51.464;-0.150;2024-03-23T08:13:52;101227.19;;;19.98;36.05
49063;BME280;34876;51.464;-0.150;2024-03-23T08:16:22;101227.90;;;19.83;36.76
49063;BME280;34876;51.464;-0.150;2024-03-23T08:18:52;101224.96;;;19.90;35.93
49063;BME280;34876;51.464;-0.150;2024-03-23T08:21:22;101222.12;;;19.79;37.52
49063;BME280;34876;51.464;-0.150;2024-03-23T08:23:52;101225.14;;;20.16;36.71
49063;BME280;34876;51.464;-0.150;2024-03-23T08:26:21;101228.61;;;19.95;37.11
49063;BME280;34876;51.464;-0.150;2024-03-23T08:28:51;101221.63;;;19.99;36.67
49063;BME280;34876;51.464;-0.150;2024-03-23T08:31:20;101225.21;;;20.00;37.46
49063;BME280;34876;51.464;-0.150;2024-03-23T08:33:51;101224.33;;;19.85;38.00
49063;BME280;34876;51.464;-0.150;2024-03-23T08:36:20;101226.64;;;19.82;36.97
49063;BME280;34876;51.464;-0.150;2024-03-23T08:38:50;101226.27;;;19.62;38.67
49063;BME280;34876;51.464;-0.150;2024-03-23T08:41:20;101232.08;;;19.95;37.83
49063;BME280;34876;51.464;-0.150;2024-03-23T08:43:50;101236.65;;;19.97;37.23
49063;BME280;34876;51.464;-0.150;2024-03-23T08:46:20;101232.03;;;20.07;35.97
49063;BME280;34876;51.464;-0.150;2024-03-23T08:48:49;101222.01;;;19.45;33.33
49063;BME280;34876;51.464;-0.150;2024-03-23T08:51:19;101228.11;;;19.38;37.66
49063;BME280;34876;51.464;-0.150;2024-03-23T08:53:49;101219.08;;;19.69;38.44
49063;BME280;34876;51.464;-0.150;2024-03-23T08:56:18;101214.02;;;19.48;38.94
49063;BME280;34876;51.464;-0.150;2024-03-23T08:58:48;101207.64;;;19.51;31.44
49063;BME280;34876;51.464;-0.150;2024-03-23T09:01:23;101211.60;;;19.08;39.36
49063;BME280;34876;51.464;-0.150;2024-03-23T09:03:54;101207.77;;;19.59;38.67
49063;BME280;34876;51.464;-0.150;2024-03-23T09:06:24;101211.46;;;18.88;38.86
49063;BME280;34876;51.464;-0.150;2024-03-23T09:08:54;101210.70;;;19.48;38.42
49063;BME280;34876;51.464;-0.150;2024-03-23T09:11:23;101212.30;;;19.28;39.83
49063;BME280;34876;51.464;-0.150;2024-03-23T09:13:53;101219.63;;;19.04;39.14
49063;BME280;34876;51.464;-0.150;2024-03-23T09:16:23;101215.09;;;19.55;39.10
49063;BME280;34876;51.464;-0.150;2024-03-23T09:18:53;101209.41;;;19.59;39.03
49063;BME280;34876;51.464;-0.150;2024-03-23T09:21:22;101217.44;;;19.14;33.38
49063;BME280;34876;51.464;-0.150;2024-03-23T09:23:51;101207.68;;;19.14;39.73
49063;BME280;34876;51.464;-0.150;2024-03-23T09:26:20;101202.42;;;19.09;40.07
49063;BME280;34876;51.464;-0.150;2024-03-23T09:28:49;101198.48;;;19.16;40.20
49063;BME280;34876;51.464;-0.150;2024-03-23T09:31:19;101194.11;;;18.47;40.14
49063;BME280;34876;51.464;-0.150;2024-03-23T09:33:48;101194.20;;;19.45;34.71
49063;BME280;34876;51.464;-0.150;2024-03-23T09:36:18;101192.56;;;18.74;40.45
49063;BME280;34876;51.464;-0.150;2024-03-23T09:38:47;101191.60;;;18.22;41.51
49063;BME280;34876;51.464;-0.150;2024-03-23T09:41:17;101188.30;;;18.70;40.51
49063;BME280;34876;51.464;-0.150;2024-03-23T09:43:46;101189.35;;;18.72;40.79
49063;BME280;34876;51.464;-0.150;2024-03-23T09:46:14;101183.76;;;18.96;40.55
49063;BME280;34876;51.464;-0.150;2024-03-23T09:48:46;101178.04;;;19.23;40.09
49063;BME280;34876;51.464;-0.150;2024-03-23T09:51:16;101177.84;;;17.79;36.28
49063;BME280;34876;51.464;-0.150;2024-03-23T09:53:45;101175.98;;;18.21;37.71
49063;BME280;34876;51.464;-0.150;2024-03-23T09:56:15;101176.46;;;18.34;40.66
49063;BME280;34876;51.464;-0.150;2024-03-23T09:58:45;101171.08;;;18.19;40.38
49063;BME280;34876;51.464;-0.150;2024-03-23T10:01:20;101163.54;;;18.85;40.57
49063;BME280;34876;51.464;-0.150;2024-03-23T10:03:48;101161.41;;;18.46;40.73
49063;BME280;34876;51.464;-0.150;2024-03-23T10:06:23;101152.52;;;19.03;40.59
49063;BME280;34876;51.464;-0.150;2024-03-23T10:08:54;101144.12;;;19.36;39.48
49063;BME280;34876;51.464;-0.150;2024-03-23T10:11:30;101143.24;;;18.78;36.79
49063;BME280;34876;51.464;-0.150;2024-03-23T10:14:00;101147.28;;;18.62;41.88
49063;BME280;34876;51.464;-0.150;2024-03-23T10:16:30;101145.08;;;18.97;41.33
49063;BME280;34876;51.464;-0.150;2024-03-23T10:19:08;101140.76;;;18.87;41.10
49063;BME280;34876;51.464;-0.150;2024-03-23T10:21:38;101139.94;;;18.88;39.85
49063;BME280;34876;51.464;-0.150;2024-03-23T10:24:11;101126.73;;;18.86;41.36
49063;BME280;34876;51.464;-0.150;2024-03-23T10:26:40;101123.50;;;19.14;40.79
49063;BME280;34876;51.464;-0.150;2024-03-23T10:29:17;101116.00;;;18.97;40.20
49063;BME280;34876;51.464;-0.150;2024-03-23T10:31:47;101112.82;;;19.01;40.68
49063;BME280;34876;51.464;-0.150;2024-03-23T10:34:16;101117.14;;;19.25;39.78
49063;BME280;34876;51.464;-0.150;2024-03-23T10:36:55;101120.42;;;18.18;42.28
49063;BME280;34876;51.464;-0.150;2024-03-23T10:39:25;101121.06;;;18.81;40.44
49063;BME280;34876;51.464;-0.150;2024-03-23T10:41:56;101118.79;;;18.03;41.62
49063;BME280;34876;51.464;-0.150;2024-03-23T10:44:27;101112.86;;;18.67;40.82
49063;BME280;34876;51.464;-0.150;2024-03-23T10:47:04;101115.16;;;18.62;40.80
49063;BME280;34876;51.464;-0.150;2024-03-23T10:49:38;101108.02;;;19.08;40.29
49063;BME280;34876;51.464;-0.150;2024-03-23T10:52:09;101114.99;;;18.75;41.23
49063;BME280;34876;51.464;-0.150;2024-03-23T10:54:41;101112.00;;;18.28;42.35
49063;BME280;34876;51.464;-0.150;2024-03-23T10:57:17;101105.23;;;18.52;42.55
49063;BME280;34876;51.464;-0.150;2024-03-23T10:59:48;101090.75;;;18.94;41.59
49063;BME280;34876;51.464;-0.150;2024-03-23T11:02:26;101092.50;;;18.27;40.49
49063;BME280;34876;51.464;-0.150;2024-03-23T11:04:54;101089.96;;;18.13;42.25
49063;BME280;34876;51.464;-0.150;2024-03-23T11:07:31;101084.72;;;18.49;40.39
49063;BME280;34876;51.464;-0.150;2024-03-23T11:10:02;101086.79;;;18.32;40.91
49063;BME280;34876;51.464;-0.150;2024-03-23T11:12:54;101080.10;;;18.44;42.11
49063;BME280;34876;51.464;-0.150;2024-03-23T11:15:23;101075.32;;;18.54;41.27
49063;BME280;34876;51.464;-0.150;2024-03-23T11:18:03;101070.77;;;18.33;41.89
49063;BME280;34876;51.464;-0.150;2024-03-23T11:20:33;101062.98;;;18.80;40.95
49063;BME280;34876;51.464;-0.150;2024-03-23T11:23:03;101060.59;;;18.33;41.92
49063;BME280;34876;51.464;-0.150;2024-03-23T11:25:35;101058.74;;;18.82;40.74
49063;BME280;34876;51.464;-0.150;2024-03-23T11:28:10;101056.52;;;18.73;41.97
49063;BME280;34876;51.464;-0.150;2024-03-23T11:30:41;101047.10;;;18.87;41.24
49063;BME280;34876;51.464;-0.150;2024-03-23T11:33:11;101039.26;;;18.52;42.17
49063;BME280;34876;51.464;-0.150;2024-03-23T11:35:42;101035.54;;;18.96;40.96
49063;BME280;34876;51.464;-0.150;2024-03-23T11:38:18;101038.12;;;18.70;40.56
49063;BME280;34876;51.464;-0.150;2024-03-23T11:40:48;101036.45;;;18.04;42.76
49063;BME280;34876;51.464;-0.150;2024-03-23T11:43:20;101040.87;;;17.21;38.96
49063;BME280;34876;51.464;-0.150;2024-03-23T11:45:54;101031.38;;;18.71;42.53
49063;BME280;34876;51.464;-0.150;2024-03-23T11:48:23;101026.64;;;18.27;30.96
49063;BME280;34876;51.464;-0.150;2024-03-23T11:50:56;101019.51;;;18.62;40.43
49063;BME280;34876;51.464;-0.150;2024-03-23T11:53:31;101011.59;;;18.33;42.94
49063;BME280;34876;51.464;-0.150;2024-03-23T11:56:01;101010.72;;;18.62;40.95
49063;BME280;34876;51.464;-0.150;2024-03-23T11:58:31;101004.25;;;18.86;41.32
49063;BME280;34876;51.464;-0.150;2024-03-23T12:01:02;100997.90;;;18.53;41.76
49063;BME280;34876;51.464;-0.150;2024-03-23T12:03:34;100998.76;;;18.26;42.65
49063;BME280;34876;51.464;-0.150;2024-03-23T12:06:07;101009.05;;;17.89;43.64
49063;BME280;34876;51.464;-0.150;2024-03-23T12:08:42;101000.35;;;18.72;42.61
49063;BME280;34876;51.464;-0.150;2024-03-23T12:11:12;100996.50;;;18.54;42.26
49063;BME280;34876;51.464;-0.150;2024-03-23T12:13:43;100999.44;;;18.84;36.46
49063;BME280;34876;51.464;-0.150;2024-03-23T12:16:14;100991.47;;;18.34;42.93
49063;BME280;34876;51.464;-0.150;2024-03-23T12:18:43;100988.34;;;18.55;41.96
49063;BME280;34876;51.464;-0.150;2024-03-23T12:21:12;100979.48;;;18.88;41.83
49063;BME280;34876;51.464;-0.150;2024-03-23T12:23:46;100972.90;;;18.93;41.47
49063;BME280;34876;51.464;-0.150;2024-03-23T12:26:15;100979.70;;;18.28;34.12
49063;BME280;34876;51.464;-0.150;2024-03-23T12:28:44;100972.46;;;18.30;41.22
49063;BME280;34876;51.464;-0.150;2024-03-23T12:31:14;100982.20;;;17.87;43.71
49063;BME280;34876;51.464;-0.150;2024-03-23T12:33:44;100971.73;;;17.80;43.02
49063;BME280;34876;51.464;-0.150;2024-03-23T12:36:12;100960.21;;;18.73;41.94
49063;BME280;34876;51.464;-0.150;2024-03-23T12:38:41;100963.57;;;17.88;43.21
49063;BME280;34876;51.464;-0.150;2024-03-23T12:41:11;100950.66;;;18.71;42.05
49063;BME280;34876;51.464;-0.150;2024-03-23T12:43:41;100953.56;;;18.65;35.65
49063;BME280;34876;51.464;-0.150;2024-03-23T12:46:14;100942.48;;;18.26;41.71
49063;BME280;34876;51.464;-0.150;2024-03-23T12:48:45;100949.42;;;18.22;35.76
49063;BME280;34876;51.464;-0.150;2024-03-23T12:51:15;100949.12;;;18.74;42.91
49063;BME280;34876;51.464;-0.150;2024-03-23T12:53:46;100957.12;;;17.51;35.33
49063;BME280;34876;51.464;-0.150;2024-03-23T12:56:16;100945.43;;;17.99;35.22
49063;BME280;34876;51.464;-0.150;2024-03-23T12:58:46;100948.49;;;18.12;44.12
49063;BME280;34876;51.464;-0.150;2024-03-23T13:01:16;100945.23;;;18.49;39.75
49063;BME280;34876;51.464;-0.150;2024-03-23T13:03:46;100949.92;;;17.73;43.62
49063;BME280;34876;51.464;-0.150;2024-03-23T13:06:17;100936.17;;;18.68;42.98
49063;BME280;34876;51.464;-0.150;2024-03-23T13:08:45;100933.31;;;18.02;40.88
49063;BME280;34876;51.464;-0.150;2024-03-23T13:11:14;100931.87;;;18.10;33.70
49063;BME280;34876;51.464;-0.150;2024-03-23T13:13:43;100935.89;;;18.22;43.04
49063;BME280;34876;51.464;-0.150;2024-03-23T13:16:13;100929.74;;;17.91;43.94
49063;BME280;34876;51.464;-0.150;2024-03-23T13:18:42;100923.40;;;17.44;44.81
49063;BME280;34876;51.464;-0.150;2024-03-23T13:21:11;100915.23;;;18.32;33.95
49063;BME280;34876;51.464;-0.150;2024-03-23T13:23:41;100925.28;;;18.32;36.19
49063;BME280;34876;51.464;-0.150;2024-03-23T13:26:10;100922.61;;;17.71;43.70
49063;BME280;34876;51.464;-0.150;2024-03-23T13:28:39;100925.67;;;17.68;44.13
49063;BME280;34876;51.464;-0.150;2024-03-23T13:31:09;100913.23;;;18.28;37.60
49063;BME280;34876;51.464;-0.150;2024-03-23T13:33:38;100912.37;;;18.47;42.81
49063;BME280;34876;51.464;-0.150;2024-03-23T13:36:08;100914.38;;;17.83;43.84
49063;BME280;34876;51.464;-0.150;2024-03-23T13:38:37;100908.88;;;18.39;42.77
49063;BME280;34876;51.464;-0.150;2024-03-23T13:41:06;100914.02;;;18.58;42.63
49063;BME280;34876;51.464;-0.150;2024-03-23T13:43:35;100920.64;;;18.32;41.16
49063;BME280;34876;51.464;-0.150;2024-03-23T13:46:04;100933.54;;;18.42;41.91
49063;BME280;34876;51.464;-0.150;2024-03-23T13:48:34;100937.14;;;18.04;43.55
49063;BME280;34876;51.464;-0.150;2024-03-23T13:51:04;100932.86;;;18.57;42.65